Time;durP1;ratioP1;P1;durP2;ratioP2;P2;SDS_P1;SDS_P2;PMS_P1;PMS_P2;Temp;Humidity;BMP_temperature;BMP_pressure;BME280_temperature;BME280_humidity;BME280_pressure;Samples;Min_cycle;Max_cycle;Signal;HPM_P1;HPM_P2
2023/10/17 00:01:00;;;;;;;0.10;0.10;;;;;;;7.50;56.34;101917.34;5074466;28;20433;-90
2023/10/17 00:03:25;;;;;;;0.10;0.10;;;;;;;7.27;56.88;101919.41;5073936;28;20031;-90
2023/10/17 00:05:54;;;;;;;0.10;0.10;;;;;;;7.16;57.23;101910.09;5073708;28;20115;-90
2023/10/17 00:08:20;;;;;;;0.10;0.10;;;;;;;7.15;57.57;101926.41;5074223;28;20053;-92
2023/10/17 00:10:46;;;;;;;0.10;0.10;;;;;;;7.02;58.13;101924.06;5057071;28;20028;-91
2023/10/17 00:15:55;;;;;;;0.10;0.10;;;;;;;6.81;59.02;101910.59;5090531;28;20039;-91
2023/10/17 00:18:25;;;;;;;0.10;0.10;;;;;;;6.71;59.03;101883.31;5056845;28;20032;-91
2023/10/17 00:20:52;;;;;;;0.10;0.10;;;;;;;6.78;59.19;101899.47;5073850;28;20040;-90
2023/10/17 00:23:20;;;;;;;0.10;0.10;;;;;;;6.87;59.35;101912.22;5073677;28;20028;-92
2023/10/17 00:25:49;;;;;;;0.10;0.10;;;;;;;6.92;59.31;101899.31;5057467;28;20028;-90
2023/10/17 00:28:15;;;;;;;0.10;0.10;;;;;;;7.03;59.06;101900.03;5074214;28;20048;-90
2023/10/17 00:30:41;;;;;;;0.10;0.10;;;;;;;6.96;59.18;101909.53;5090818;28;20113;-91
2023/10/17 00:33:10;;;;;;;0.10;0.10;;;;;;;7.05;59.04;101906.00;5056699;28;20043;-90
2023/10/17 00:35:39;;;;;;;0.10;0.10;;;;;;;6.97;59.29;101893.22;5073806;28;20020;-90
2023/10/17 00:38:08;;;;;;;0.10;0.10;;;;;;;6.89;59.29;101893.34;5073201;28;20032;-89
2023/10/17 00:40:52;;;;;;;0.10;0.10;;;;;;;7.03;59.42;101898.28;5073433;28;20031;-90
2023/10/17 00:43:17;;;;;;;0.10;0.10;;;;;;;6.90;59.51;101889.06;5075522;28;20036;-92
2023/10/17 00:45:47;;;;;;;0.10;0.10;;;;;;;6.85;59.55;101876.25;5073457;28;20039;-89
2023/10/17 00:48:18;;;;;;;0.10;0.10;;;;;;;6.96;59.16;101894.09;5090431;28;20481;-90
2023/10/17 00:50:46;;;;;;;0.10;0.10;;;;;;;6.84;59.60;101886.56;5056726;28;20028;-91
2023/10/17 00:53:11;;;;;;;0.10;0.10;;;;;;;6.83;59.38;101877.13;5073294;28;20039;-91
2023/10/17 00:55:37;;;;;;;0.10;0.10;;;;;;;6.74;59.27;101887.53;5073133;28;20432;-90
2023/10/17 00:58:06;;;;;;;0.10;0.10;;;;;;;6.73;59.83;101888.41;5057221;28;20034;-90
2023/10/17 01:00:39;;;;;;;0.10;0.10;;;;;;;6.68;59.91;101885.88;5077302;28;20036;-91
2023/10/17 01:03:11;;;;;;;0.10;0.10;;;;;;;6.86;59.38;101897.66;5078034;28;20036;-91
2023/10/17 01:06:10;;;;;;;0.10;0.10;;;;;;;6.80;59.28;101901.19;5061383;28;20057;-90
2023/10/17 01:08:44;;;;;;;0.10;0.10;;;;;;;6.76;59.79;101888.38;5079119;28;20445;-90
2023/10/17 01:11:20;;;;;;;0.10;0.10;;;;;;;6.70;59.84;101871.31;5078059;28;20028;-91
2023/10/17 01:13:53;;;;;;;0.10;0.10;;;;;;;6.81;59.13;101872.03;5077677;28;20055;-90
2023/10/17 01:16:22;;;;;;;0.10;0.10;;;;;;;6.78;59.39;101869.47;5077461;28;20034;-91
2023/10/17 01:18:47;;;;;;;0.10;0.10;;;;;;;6.81;59.31;101878.88;5059871;28;20090;-91
2023/10/17 01:21:22;;;;;;;0.10;0.10;;;;;;;6.51;59.15;101829.56;5059357;28;20126;-90
2023/10/17 01:23:48;;;;;;;0.10;0.10;;;;;;;6.78;59.92;101886.63;5093272;28;20023;-89
2023/10/17 01:26:20;;;;;;;0.10;0.10;;;;;;;6.72;59.54;101869.56;5076486;28;20032;-92
2023/10/17 01:28:49;;;;;;;0.10;0.10;;;;;;;6.71;58.97;101874.75;5077953;28;20031;-89
2023/10/17 01:31:16;;;;;;;0.10;0.10;;;;;;;6.86;58.91;101892.53;5076852;28;20085;-90
2023/10/17 01:33:44;;;;;;;0.10;0.10;;;;;;;6.89;58.48;101892.50;5076467;28;20031;-90
2023/10/17 01:36:10;;;;;;;0.10;0.10;;;;;;;6.83;57.95;101892.56;5076658;28;20538;-90
2023/10/17 01:38:36;;;;;;;0.10;0.10;;;;;;;6.77;57.92;101898.63;5075969;28;20024;-90
2023/10/17 01:41:02;;;;;;;0.10;0.10;;;;;;;6.69;57.81;101895.34;5059429;28;20093;-91
2023/10/17 01:43:34;;;;;;;0.10;0.10;;;;;;;6.54;57.68;101885.22;5076007;28;20028;-90
2023/10/17 01:46:01;;;;;;;0.10;0.10;;;;;;;6.51;57.84;101891.25;5076996;28;20026;-91
2023/10/17 01:48:26;;;;;;;0.10;0.10;;;;;;;6.45;57.95;101900.75;5092740;28;20024;-91
2023/10/17 01:50:53;;;;;;;0.10;0.10;;;;;;;6.39;58.07;101891.41;5076052;28;20100;-90
2023/10/17 01:53:19;;;;;;;0.10;0.10;;;;;;;6.37;58.37;101905.97;5075938;28;20031;-91
2023/10/17 01:55:54;;;;;;;0.10;0.10;;;;;;;6.37;58.50;101903.41;5059088;28;20055;-90
2023/10/17 01:58:22;;;;;;;0.10;0.10;;;;;;;6.04;58.88;101864.38;5077019;28;20055;-90
2023/10/17 02:00:47;;;;;;;0.10;0.10;;;;;;;6.24;58.81;101889.84;5076079;28;20028;-91
2023/10/17 02:03:16;;;;;;;0.10;0.10;;;;;;;6.21;59.18;101896.75;5058936;28;20082;-90
2023/10/17 02:05:42;;;;;;;0.10;0.10;;;;;;;6.11;59.67;101900.28;5076064;28;20056;-90
2023/10/17 02:08:08;;;;;;;0.10;0.10;;;;;;;5.98;60.12;101887.53;5092339;28;20030;-92
2023/10/17 02:10:34;;;;;;;0.10;0.10;;;;;;;5.95;60.62;101882.44;5057941;28;20032;-88
2023/10/17 02:13:00;;;;;;;0.10;0.10;;;;;;;5.99;60.88;101886.66;5075248;28;20048;-89
2023/10/17 02:15:26;;;;;;;0.10;0.10;;;;;;;5.77;61.62;101882.56;5059070;28;20027;-90
2023/10/17 02:17:52;;;;;;;0.10;0.10;;;;;;;5.75;62.24;101897.16;5058797;28;20035;-91
2023/10/17 02:22:49;;;;;;;0.10;0.10;;;;;;;5.89;61.77;101905.56;5075721;28;20036;-89
2023/10/17 02:25:16;;;;;;;0.10;0.10;;;;;;;5.83;61.64;101892.81;5075680;28;20028;-93
2023/10/17 02:27:43;;;;;;;0.10;0.10;;;;;;;5.90;61.32;101884.22;5091948;28;20062;-89
2023/10/17 02:30:14;;;;;;;0.10;0.10;;;;;;;5.93;61.04;101886.75;5075355;28;20382;-93
2023/10/17 02:32:46;;;;;;;0.10;0.10;;;;;;;5.80;61.51;101880.00;5076071;28;20035;-90
2023/10/17 02:35:14;;;;;;;0.10;0.10;;;;;;;5.92;61.28;101900.47;5060409;28;20028;-89
2023/10/17 02:37:43;;;;;;;0.10;0.10;;;;;;;5.88;61.20;101888.47;5059182;28;20093;-90
2023/10/17 02:40:21;;;;;;;0.10;0.10;;;;;;;5.76;60.98;101878.31;5091902;28;20028;-91
2023/10/17 02:42:49;;;;;;;0.10;0.10;;;;;;;5.83;61.19;101903.06;5092222;28;20028;-92
2023/10/17 02:45:24;;;;;;;0.10;0.10;;;;;;;5.77;61.33;101900.56;5074898;28;20028;-91
2023/10/17 02:47:54;;;;;;;0.10;0.10;;;;;;;5.50;62.14;101903.34;5076206;28;20034;-90
2023/10/17 02:51:03;;;;;;;0.10;0.10;;;;;;;5.60;61.88;101905.81;5075270;28;20510;-93
2023/10/17 02:53:12;;;;;;;0.10;0.10;;;;;;;5.63;62.05;101892.97;5069913;28;20040;-91
2023/10/17 02:55:38;;;;;;;0.10;0.10;;;;;;;5.70;61.67;101896.31;5059347;28;20035;-91
2023/10/17 02:58:04;;;;;;;0.10;0.10;;;;;;;5.62;61.97;101903.25;5074729;28;20052;-90
2023/10/17 03:00:33;;;;;;;0.10;0.10;;;;;;;5.62;61.76;101896.41;5074677;28;20067;-91
2023/10/17 03:02:59;;;;;;;0.10;0.10;;;;;;;5.60;61.85;101887.84;5074774;28;20051;-91
2023/10/17 03:05:27;;;;;;;0.10;0.10;;;;;;;5.61;62.04;101888.72;5074593;28;20097;-90
2023/10/17 03:07:53;;;;;;;0.10;0.10;;;;;;;5.56;62.20;101885.34;5074780;28;20123;-90
2023/10/17 03:10:37;;;;;;;0.10;0.10;;;;;;;5.41;62.63;101884.59;5057745;28;20105;-89
2023/10/17 03:16:00;;;;;;;0.10;0.10;;;;;;;5.40;62.95;101882.88;5075393;28;20040;-89
2023/10/17 03:18:26;;;;;;;0.10;0.10;;;;;;;5.39;62.93;101882.88;5059900;28;20047;-90
2023/10/17 03:20:51;;;;;;;0.10;0.10;;;;;;;5.38;62.79;101886.31;5091057;28;20071;-89
2023/10/17 03:23:18;;;;;;;0.10;0.10;;;;;;;5.45;62.53;101873.44;5057487;28;20103;-90
2023/10/17 03:25:46;;;;;;;0.10;0.10;;;;;;;5.39;62.61;101888.88;5074320;28;20020;-91
2023/10/17 03:28:22;;;;;;;0.10;0.10;;;;;;;5.37;62.89;101890.59;5074487;28;20043;-90
2023/10/17 03:30:48;;;;;;;0.10;0.10;;;;;;;5.19;62.95;101871.06;5059962;28;20486;-89
2023/10/17 03:33:14;;;;;;;0.10;0.10;;;;;;;5.36;62.80;101888.06;5091946;28;20020;-89
2023/10/17 03:38:26;;;;;;;0.20;0.20;;;;;;;5.22;63.32;101888.16;5088480;28;20085;-89
2023/10/17 03:40:53;;;;;;;0.10;0.10;;;;;;;5.31;63.13;101885.53;5041690;28;20060;-86
2023/10/17 03:43:22;;;;;;;0.10;0.10;;;;;;;5.18;62.94;101899.28;5050039;28;20399;-89
2023/10/17 03:45:58;;;;;;;0.10;0.10;;;;;;;5.07;63.42;101901.06;5050633;28;20494;-89
2023/10/17 03:48:24;;;;;;;0.10;0.10;;;;;;;5.10;63.50;101903.59;5065581;28;20078;-90
2023/10/17 03:51:08;;;;;;;0.10;0.10;;;;;;;5.02;63.65;101903.69;5033548;28;20116;-90
2023/10/17 03:53:42;;;;;;;0.10;0.10;;;;;;;4.97;63.97;101894.28;5035811;28;20060;-89
2023/10/17 03:56:11;;;;;;;0.10;0.10;;;;;;;5.04;63.56;101903.66;5050048;28;20060;-89
2023/10/17 03:58:53;;;;;;;0.10;0.10;;;;;;;5.06;63.07;101901.94;5033843;28;20059;-90
2023/10/17 04:01:19;;;;;;;0.10;0.10;;;;;;;5.19;63.13;101908.69;5065500;28;20029;-92
2023/10/17 04:03:46;;;;;;;0.10;0.10;;;;;;;5.03;63.68;101905.38;5050501;28;20025;-91
2023/10/17 04:08:49;;;;;;;0.10;0.10;;;;;;;5.14;63.02;101907.88;5067689;28;20505;-89
2023/10/17 04:13:56;;;;;;;0.10;0.10;;;;;;;4.93;63.70;101915.69;5035094;28;20049;-92
2023/10/17 04:16:34;;;;;;;0.10;0.10;;;;;;;4.84;64.00;101901.19;5030583;28;20032;-91
2023/10/17 04:19:17;;;;;;;0.10;0.10;;;;;;;4.95;63.98;101908.84;5040888;28;20040;-91
2023/10/17 04:21:51;;;;;;;;;;;;;;;4.88;64.08;101900.31;5078831;28;20024;-94
2023/10/17 04:24:35;;;;;;;0.10;0.10;;;;;;;4.76;64.94;101906.34;5055582;28;19916;-92
2023/10/17 04:27:18;;;;;;;0.10;0.10;;;;;;;4.84;64.87;101901.19;5074954;28;20104;-91
2023/10/17 04:29:57;;;;;;;0.10;0.10;;;;;;;4.83;64.96;101902.06;5050009;28;20116;-92
2023/10/17 04:32:26;;;;;;;0.10;0.10;;;;;;;5.01;64.66;101907.06;5035900;28;20052;-92
2023/10/17 04:34:52;;;;;;;0.10;0.10;;;;;;;5.04;64.55;101903.66;5042187;28;20029;-92
2023/10/17 04:37:24;;;;;;;0.10;0.10;;;;;;;5.18;64.20;101904.41;5057487;28;20035;-90
2023/10/17 04:39:50;;;;;;;0.10;0.10;;;;;;;5.32;64.17;101907.75;5063197;28;20048;-93
2023/10/17 04:45:06;;;;;;;0.10;0.10;;;;;;;5.30;64.21;101901.75;5073427;28;20489;-94
2023/10/17 04:47:39;;;;;;;0.10;0.10;;;;;;;5.25;64.32;101908.66;5070762;28;20043;-92
2023/10/17 04:50:11;;;;;;;0.10;0.10;;;;;;;5.34;64.74;101912.88;5038557;28;20028;-93
2023/10/17 04:52:44;;;;;;;0.10;0.10;;;;;;;5.45;64.40;101914.50;5042073;28;20036;-90
2023/10/17 04:55:21;;;;;;;0.10;0.10;;;;;;;5.59;64.46;101926.38;5057310;28;20032;-90
2023/10/17 05:00:25;;;;;;;0.13;0.13;;;;;;;5.71;64.86;101923.72;5037260;28;20134;-90
2023/10/17 06:17:27;;;;;;;0.10;0.10;;;;;;;7.52;61.44;101977.38;5056071;28;20093;-88
2023/10/17 06:19:53;;;;;;;0.10;0.10;;;;;;;7.45;63.43;101970.63;5059011;28;20127;-89
2023/10/17 06:34:47;;;;;;;0.10;0.10;;;;;;;7.81;62.13;101958.06;5070608;28;20039;-92
2023/10/17 06:37:29;;;;;;;0.10;0.10;;;;;;;7.95;60.68;101950.94;5043960;28;20169;-88
2023/10/17 06:39:58;;;;;;;0.15;0.15;;;;;;;8.08;60.02;101944.72;5085852;28;20043;-88
2023/10/17 06:42:38;;;;;;;0.10;0.10;;;;;;;7.99;58.99;101966.34;5077939;28;20102;-89
2023/10/17 06:45:08;;;;;;;0.10;0.10;;;;;;;8.09;59.21;101958.47;5047443;28;20028;-92
2023/10/17 06:47:47;;;;;;;0.10;0.10;;;;;;;8.15;58.09;101959.19;5044732;28;20040;-95
2023/10/17 06:55:38;;;;;;;0.10;0.10;;;;;;;8.44;56.38;101955.25;5058891;28;20036;-92
2023/10/17 06:58:09;;;;;;;0.10;0.10;;;;;;;8.54;55.48;101947.31;5047709;28;20032;-91
2023/10/17 07:00:43;;;;;;;0.10;0.10;;;;;;;8.61;56.26;101948.06;5055005;28;20124;-91
2023/10/17 07:03:09;;;;;;;0.10;0.10;;;;;;;8.51;55.54;101944.81;5055699;28;20555;-90
2023/10/17 07:05:36;;;;;;;0.20;0.20;;;;;;;8.43;57.05;101938.94;5040188;28;20490;-93
2023/10/17 07:08:02;;;;;;;0.10;0.10;;;;;;;8.61;57.59;101954.06;5023183;28;20098;-94
2023/10/17 07:13:35;;;;;;;0.10;0.10;;;;;;;8.94;56.87;101955.97;5060352;28;20095;-92
2023/10/17 07:16:12;;;;;;;0.10;0.10;;;;;;;9.00;56.75;101946.38;5089406;28;20088;-91
2023/10/17 07:21:15;;;;;;;0.17;0.17;;;;;;;9.10;56.69;101953.06;5052247;28;20032;-89
2023/10/17 07:23:42;;;;;;;0.10;0.10;;;;;;;9.10;56.59;101952.19;5069542;28;20081;-88
2023/10/17 07:26:17;;;;;;;0.10;0.10;;;;;;;9.13;56.38;101952.97;5054122;28;20024;-93
2023/10/17 07:28:44;;;;;;;0.10;0.10;;;;;;;9.23;55.99;101958.78;5069854;28;20032;-91
2023/10/17 07:31:12;;;;;;;0.10;0.10;;;;;;;9.20;56.54;101945.94;5053589;28;20024;-91
2023/10/17 07:33:42;;;;;;;0.10;0.10;;;;;;;9.22;55.91;101956.25;5034663;28;20027;-93
2023/10/17 07:36:13;;;;;;;0.10;0.10;;;;;;;9.03;56.31;101945.47;5054167;28;20028;-90
2023/10/17 07:38:41;;;;;;;0.10;0.10;;;;;;;9.22;56.50;101951.06;5059002;28;20028;-92
2023/10/17 07:41:53;;;;;;;0.10;0.10;;;;;;;9.37;56.52;101938.69;5029903;28;20060;-91
2023/10/17 07:43:59;;;;;;;0.10;0.10;;;;;;;9.64;55.22;101951.84;5055672;28;20032;-89
2023/10/17 07:46:29;;;;;;;0.10;0.10;;;;;;;9.70;54.69;101954.25;5071825;28;20122;-91
2023/10/17 07:49:04;;;;;;;0.10;0.10;;;;;;;9.79;54.84;101961.78;5055828;28;20031;-89
2023/10/17 07:51:30;;;;;;;0.10;0.10;;;;;;;9.87;55.66;101949.53;5080967;28;20065;-89
2023/10/17 07:53:55;;;;;;;0.10;0.10;;;;;;;9.91;54.72;101945.13;5056130;28;20438;-88
2023/10/17 07:56:21;;;;;;;0.10;0.10;;;;;;;10.05;53.94;101941.31;5074227;28;20136;-89
2023/10/17 07:59:07;;;;;;;0.10;0.10;;;;;;;10.01;53.89;101928.50;5082219;28;20032;-87
2023/10/17 08:01:43;;;;;;;0.10;0.10;;;;;;;10.21;52.85;101948.66;5060091;28;20048;-90
2023/10/17 08:04:18;;;;;;;0.10;0.10;;;;;;;10.12;52.58;101947.16;5043781;28;20032;-86
2023/10/17 08:06:44;;;;;;;0.10;0.10;;;;;;;10.03;52.59;101950.00;5073611;28;20030;-88
2023/10/17 08:11:51;;;;;;;0.10;0.10;;;;;;;10.15;52.79;101949.69;5067141;28;20063;-88
2023/10/17 08:14:18;;;;;;;0.10;0.10;;;;;;;10.42;52.17;101958.50;5072911;28;20025;-89
2023/10/17 08:16:46;;;;;;;0.20;0.20;;;;;;;10.44;52.43;101956.72;5069807;28;20481;-93
2023/10/17 08:19:22;;;;;;;0.10;0.10;;;;;;;10.64;52.94;101945.81;5069790;28;20397;-88
2023/10/17 08:24:40;;;;;;;0.10;0.10;;;;;;;10.66;51.41;101948.34;5056498;28;20485;-87
2023/10/17 08:27:13;;;;;;;0.10;0.10;;;;;;;10.82;50.64;101949.63;5053022;28;20119;-89
2023/10/17 08:29:42;;;;;;;0.10;0.10;;;;;;;10.88;50.51;101939.06;5076552;28;20032;-91
2023/10/17 08:32:38;;;;;;;0.10;0.10;;;;;;;10.79;50.20;101939.34;5043657;28;20524;-90
2023/10/17 08:35:09;;;;;;;0.20;0.20;;;;;;;10.74;51.73;101917.91;5079839;28;20036;-90
2023/10/17 08:37:44;;;;;;;0.20;0.20;;;;;;;10.85;50.77;101941.75;5065782;28;20071;-91
2023/10/17 08:40:29;;;;;;;0.20;0.20;;;;;;;11.05;51.19;101944.59;5047008;28;20536;-91
2023/10/17 08:43:20;;;;;;;0.10;0.10;;;;;;;11.09;50.27;101943.59;5090683;28;20026;-91
2023/10/17 08:45:47;;;;;;;0.20;0.20;;;;;;;11.09;50.36;101943.59;5065642;28;20079;-93
2023/10/17 08:48:13;;;;;;;0.17;0.17;;;;;;;11.28;51.21;101948.22;5055076;28;20036;-90
2023/10/17 08:50:39;;;;;;;0.20;0.20;;;;;;;11.29;49.58;101945.59;5058144;28;20033;-93
2023/10/17 08:53:42;;;;;;;0.20;0.20;;;;;;;11.32;49.71;101940.34;5056866;28;20032;-90
2023/10/17 08:56:02;;;;;;;0.10;0.10;;;;;;;11.30;49.30;101934.31;5060762;28;20040;-89
2023/10/17 08:58:32;;;;;;;0.10;0.10;;;;;;;11.38;49.45;101947.03;5075094;28;20032;-90
2023/10/17 09:01:07;;;;;;;0.10;0.10;;;;;;;11.46;49.74;101950.25;5066401;28;20023;-89
2023/10/17 09:03:36;;;;;;;0.10;0.10;;;;;;;11.61;49.61;101951.53;5076349;28;20147;-89
2023/10/17 09:09:33;;;;;;;0.10;0.10;;;;;;;11.58;49.04;101952.44;5065136;28;20085;-89
2023/10/17 09:11:29;;;;;;;0.10;0.10;;;;;;;11.67;48.93;101956.50;5054272;28;20040;-89
2023/10/17 09:14:15;;;;;;;0.10;0.10;;;;;;;11.76;48.83;101961.38;5067700;28;20055;-92
2023/10/17 09:16:51;;;;;;;0.10;0.10;;;;;;;11.67;47.48;101926.22;5073947;28;20062;-93
2023/10/17 09:19:20;;;;;;;0.10;0.10;;;;;;;11.76;47.35;101933.72;5172699;22;20049;-93
2023/10/17 09:21:47;;;;;;;0.10;0.10;;;;;;;11.86;46.90;101930.84;4991755;28;20798;-89
2023/10/17 09:24:36;;;;;;;0.10;0.10;;;;;;;12.10;46.77;101932.63;4996632;28;20041;-93
2023/10/17 09:27:15;;;;;;;0.10;0.10;;;;;;;11.95;46.87;101935.72;5013360;28;20033;-90
2023/10/17 09:29:48;;;;;;;0.10;0.10;;;;;;;11.80;46.77;101911.16;5009311;28;20549;-90
2023/10/17 09:32:36;;;;;;;0.17;0.17;;;;;;;12.00;47.62;101929.50;4996889;28;20025;-90
2023/10/17 09:35:10;;;;;;;0.10;0.10;;;;;;;12.05;46.94;101918.94;5028803;28;20034;-94
2023/10/17 09:37:41;;;;;;;0.10;0.10;;;;;;;12.02;46.54;101909.53;5011306;28;20468;-87
2023/10/17 09:40:11;;;;;;;0.10;0.10;;;;;;;12.02;46.20;101886.19;4986577;28;20486;-91
2023/10/17 09:42:40;;;;;;;0.10;0.10;;;;;;;12.03;46.66;101912.97;4992713;28;20029;-89
2023/10/17 09:45:07;;;;;;;0.10;0.10;;;;;;;12.21;47.85;101906.31;5012764;28;20030;-93
2023/10/17 09:47:33;;;;;;;0.10;0.10;;;;;;;12.17;47.49;101889.97;4991083;28;20092;-94
2023/10/17 09:50:05;;;;;;;0.10;0.10;;;;;;;12.27;48.73;101917.28;5021289;28;20101;-94
2023/10/17 09:52:31;;;;;;;0.10;0.10;;;;;;;12.35;46.98;101904.91;4979622;28;20029;-87
2023/10/17 09:54:58;;;;;;;0.10;0.10;;;;;;;12.32;47.45;101891.19;4994968;28;20527;-89
2023/10/17 09:57:25;;;;;;;0.17;0.17;;;;;;;12.54;46.62;101904.22;4995332;28;20637;-88
2023/10/17 10:00:14;;;;;;;0.10;0.10;;;;;;;12.54;47.66;101906.81;5011671;28;20490;-93
2023/10/17 10:02:39;;;;;;;0.10;0.10;;;;;;;12.46;46.72;101886.34;5002417;28;20046;-88
2023/10/17 10:05:25;;;;;;;0.10;0.10;;;;;;;12.56;46.20;101894.63;4993446;28;20030;-86
2023/10/17 10:07:51;;;;;;;0.10;0.10;;;;;;;12.60;46.30;101886.69;5009901;28;20026;-91
2023/10/17 10:10:43;;;;;;;0.10;0.10;;;;;;;12.62;45.83;101876.25;5011157;28;20022;-88
2023/10/17 10:13:13;;;;;;;0.10;0.10;;;;;;;12.63;45.99;101868.38;5011424;28;20034;-87
2023/10/17 10:15:54;;;;;;;0.10;0.10;;;;;;;12.72;44.68;101866.34;5010022;28;20060;-85
2023/10/17 10:18:35;;;;;;;0.10;0.10;;;;;;;12.67;44.98;101831.91;5010973;28;20050;-90
2023/10/17 10:21:03;;;;;;;0.10;0.10;;;;;;;12.85;45.19;101836.41;5011216;28;20034;-91
2023/10/17 10:23:36;;;;;;;0.10;0.10;;;;;;;12.91;45.47;101847.41;4994740;28;20088;-88
2023/10/17 10:26:19;;;;;;;0.13;0.13;;;;;;;13.02;45.39;101840.94;5010803;28;20056;-89
2023/10/17 10:28:47;;;;;;;0.15;0.15;;;;;;;12.91;44.56;101836.16;5010411;28;20034;-87
2023/10/17 10:31:21;;;;;;;0.10;0.10;;;;;;;13.04;44.34;101837.38;5008415;28;20029;-87
2023/10/17 10:33:53;;;;;;;0.10;0.10;;;;;;;13.14;44.17;101832.66;5012573;28;20080;-91
2023/10/17 10:36:20;;;;;;;0.10;0.10;;;;;;;13.19;44.58;101812.56;4994421;28;20030;-90
2023/10/17 10:38:46;;;;;;;0.10;0.10;;;;;;;13.19;44.56;101831.59;4973944;28;20492;-87
2023/10/17 10:41:13;;;;;;;0.10;0.10;;;;;;;13.08;44.10;101788.75;4963271;28;20085;-91
2023/10/17 10:43:42;;;;;;;0.10;0.10;;;;;;;13.30;44.05;101833.75;5007353;28;20109;-87
2023/10/17 10:46:08;;;;;;;0.20;0.20;;;;;;;13.34;43.61;101826.66;4994244;28;20027;-89
2023/10/17 10:48:34;;;;;;;0.20;0.20;;;;;;;13.36;43.76;101825.69;4990099;28;20037;-91
2023/10/17 10:51:00;;;;;;;0.10;0.10;;;;;;;13.44;44.04;101826.22;4990401;28;20045;-88
2023/10/17 10:53:29;;;;;;;0.10;0.10;;;;;;;13.29;43.98;101811.28;4995106;28;20676;-96
2023/10/17 10:56:09;;;;;;;0.10;0.10;;;;;;;13.49;43.65;101813.03;5011357;28;20026;-91
2023/10/17 10:58:41;;;;;;;0.10;0.10;;;;;;;13.52;43.74;101812.06;5026729;28;20179;-92
2023/10/17 11:01:07;;;;;;;0.10;0.10;;;;;;;13.52;43.44;101802.50;4996014;28;20030;-90
2023/10/17 11:03:39;;;;;;;0.10;0.10;;;;;;;13.57;43.22;101802.31;5010076;28;20034;-93
2023/10/17 11:06:07;;;;;;;0.10;0.10;;;;;;;13.59;43.07;101800.50;4993136;28;20064;-88
2023/10/17 11:08:43;;;;;;;0.10;0.10;;;;;;;13.67;42.82;101801.03;5009372;28;20116;-93
2023/10/17 11:11:10;;;;;;;0.20;0.20;;;;;;;13.74;42.44;101797.22;5026069;28;20061;-89
2023/10/17 11:13:36;;;;;;;0.10;0.10;;;;;;;13.65;42.49;101793.25;5009502;28;20061;-88
2023/10/17 11:16:05;;;;;;;0.10;0.10;;;;;;;13.61;43.01;101785.69;4994431;28;20049;-92
2023/10/17 11:18:40;;;;;;;0.10;0.10;;;;;;;13.57;42.44;101779.78;5007980;28;20439;-90
2023/10/17 11:21:08;;;;;;;0.10;0.10;;;;;;;13.71;43.05;101781.75;5009102;28;20049;-89
2023/10/17 11:23:35;;;;;;;0.10;0.10;;;;;;;13.61;42.73;101749.28;5009134;28;20037;-92
2023/10/17 11:26:00;;;;;;;0.10;0.10;;;;;;;13.74;42.61;101763.41;5009810;28;20045;-91
2023/10/17 11:28:27;;;;;;;0.20;0.20;;;;;;;13.85;43.23;101768.97;4992545;28;20411;-91
2023/10/17 11:30:52;;;;;;;0.13;0.13;;;;;;;13.74;42.56;101756.47;4994743;28;20037;-90
2023/10/17 11:33:18;;;;;;;0.10;0.10;;;;;;;13.62;42.88;101757.00;5029653;28;20026;-92
2023/10/17 11:35:51;;;;;;;0.10;0.10;;;;;;;13.66;42.88;101736.91;5023617;28;20089;-94
2023/10/17 11:38:40;;;;;;;0.20;0.20;;;;;;;13.71;42.92;101734.94;5014103;28;20442;-92
2023/10/17 11:41:07;;;;;;;0.10;0.10;;;;;;;13.89;42.45;101739.34;4993147;28;20050;-90
2023/10/17 11:43:37;;;;;;;0.20;0.20;;;;;;;14.07;42.34;101753.28;5011036;28;20041;-94
2023/10/17 11:46:03;;;;;;;0.10;0.10;;;;;;;14.16;41.64;101749.38;5010428;28;20033;-89
2023/10/17 11:48:40;;;;;;;0.10;0.10;;;;;;;14.12;41.98;101735.69;4985076;28;20034;-93
2023/10/17 11:51:29;;;;;;;0.10;0.10;;;;;;;14.19;41.62;101737.09;4998220;28;20053;-94
2023/10/17 11:54:05;;;;;;;0.20;0.20;;;;;;;14.15;41.68;101735.53;5011766;28;20152;-93
2023/10/17 11:56:37;;;;;;;0.10;0.10;;;;;;;14.24;41.84;101744.69;5009128;28;20029;-92
2023/10/17 11:59:03;;;;;;;;;;;;;;;14.36;41.86;101741.53;5011661;28;20033;-92
2023/10/17 12:01:34;;;;;;;0.10;0.10;;;;;;;14.03;42.16;101739.53;5013183;28;19921;-88
2023/10/17 12:04:06;;;;;;;0.10;0.10;;;;;;;14.12;42.07;101734.84;4994915;28;20022;-93
2023/10/17 12:06:35;;;;;;;0.10;0.10;;;;;;;14.14;42.14;101733.84;5010472;28;20037;-93
2023/10/17 12:09:22;;;;;;;0.10;0.10;;;;;;;14.12;42.00;101719.22;5010763;28;20038;-90
2023/10/17 12:11:51;;;;;;;0.10;0.10;;;;;;;14.32;41.83;101742.56;4982604;28;20033;-87
2023/10/17 12:14:20;;;;;;;0.10;0.10;;;;;;;14.38;41.48;101731.03;5008501;28;20056;-92
2023/10/17 12:16:55;;;;;;;0.10;0.10;;;;;;;14.33;41.12;101731.22;5011066;28;20033;-92
2023/10/17 12:19:27;;;;;;;0.10;0.10;;;;;;;14.35;41.20;101732.00;5011425;28;20049;-91
2023/10/17 12:21:53;;;;;;;0.15;0.15;;;;;;;14.25;41.18;101723.78;4988804;28;20381;-91
2023/10/17 12:24:38;;;;;;;0.10;0.10;;;;;;;14.15;41.52;101730.31;4989875;28;20034;-89
2023/10/17 12:27:06;;;;;;;0.10;0.10;;;;;;;14.24;42.31;101723.84;4997367;28;20500;-91
2023/10/17 12:29:34;;;;;;;0.10;0.10;;;;;;;14.22;42.45;101715.28;5009373;28;20052;-91
2023/10/17 12:32:01;;;;;;;0.13;0.13;;;;;;;14.22;42.13;101699.66;5010812;28;20454;-87
2023/10/17 12:34:29;;;;;;;0.10;0.10;;;;;;;14.28;41.33;101709.78;5010272;28;20476;-87
2023/10/17 12:36:55;;;;;;;0.10;0.10;;;;;;;14.23;41.40;101716.97;5010105;28;20041;-91
2023/10/17 12:39:21;;;;;;;0.10;0.10;;;;;;;14.36;41.41;101712.88;4990354;28;20038;-92
2023/10/17 12:41:46;;;;;;;0.10;0.10;;;;;;;14.44;41.46;101720.31;5006898;28;20511;-89
2023/10/17 12:44:12;;;;;;;0.13;0.13;;;;;;;14.35;41.33;101711.16;4978097;28;20030;-90
2023/10/17 12:46:38;;;;;;;0.20;0.20;;;;;;;14.32;41.68;101706.13;5020476;28;20090;-89
2023/10/17 12:49:06;;;;;;;0.10;0.10;;;;;;;14.25;41.71;101697.75;5015368;28;20036;-90
2023/10/17 12:51:32;;;;;;;0.10;0.10;;;;;;;14.36;41.16;101707.69;5032984;28;20047;-93
2023/10/17 12:53:57;;;;;;;0.20;0.20;;;;;;;14.36;41.13;101681.66;5021751;28;20030;-91
2023/10/17 12:56:24;;;;;;;0.10;0.10;;;;;;;14.47;40.94;101700.22;5001938;28;20037;-89
2023/10/17 12:58:50;;;;;;;0.10;0.10;;;;;;;14.46;40.92;101688.13;5012441;28;20072;-89
2023/10/17 13:01:17;;;;;;;0.10;0.10;;;;;;;14.31;40.94;101683.63;4996088;28;20025;-90
2023/10/17 13:03:42;;;;;;;0.10;0.10;;;;;;;14.30;41.20;101692.34;4996918;28;20034;-91
2023/10/17 13:06:11;;;;;;;0.10;0.10;;;;;;;14.35;41.09;101685.13;5013134;28;20060;-91
2023/10/17 13:08:36;;;;;;;0.20;0.20;;;;;;;14.33;41.46;101680.00;5003529;28;20022;-90
2023/10/17 13:11:02;;;;;;;0.15;0.15;;;;;;;14.49;41.06;101693.19;4996765;28;20506;-91
2023/10/17 13:13:29;;;;;;;0.10;0.10;;;;;;;14.52;40.88;101681.75;4981993;28;20542;-93
2023/10/17 13:15:57;;;;;;;0.20;0.20;;;;;;;14.54;41.64;101680.75;5011536;28;20103;-91
2023/10/17 13:18:24;;;;;;;0.10;0.10;;;;;;;14.50;41.84;101675.78;5012883;28;20061;-91
2023/10/17 13:20:50;;;;;;;0.20;0.20;;;;;;;14.29;41.58;101634.22;5046070;28;20157;-88
2023/10/17 13:23:16;;;;;;;0.10;0.10;;;;;;;14.66;40.89;101670.69;5011992;28;20022;-86
2023/10/17 13:25:42;;;;;;;0.10;0.10;;;;;;;14.70;40.44;101662.63;5012482;28;20034;-90
2023/10/17 13:28:07;;;;;;;0.10;0.10;;;;;;;14.69;40.54;101675.75;4973362;28;20462;-93
2023/10/17 13:30:33;;;;;;;0.10;0.10;;;;;;;14.76;40.49;101680.56;4993799;28;20100;-94
2023/10/17 13:32:58;;;;;;;0.22;0.20;;;;;;;14.70;41.01;101669.63;4993506;28;20084;-93
2023/10/17 13:35:24;;;;;;;0.10;0.10;;;;;;;14.79;40.79;101676.97;4983964;28;20038;-90
2023/10/17 13:37:53;;;;;;;0.10;0.10;;;;;;;14.80;40.19;101686.47;4994724;28;20038;-94
2023/10/17 13:40:21;;;;;;;0.10;0.10;;;;;;;14.70;40.29;101680.03;4993827;28;20570;-89
2023/10/17 13:42:46;;;;;;;0.10;0.10;;;;;;;14.57;40.05;101674.59;5013067;28;20040;-89
2023/10/17 13:45:15;;;;;;;0.10;0.10;;;;;;;14.72;40.55;101672.97;5011576;28;20038;-93
2023/10/17 13:47:41;;;;;;;0.15;0.15;;;;;;;14.72;40.97;101667.75;5013371;28;20030;-90
2023/10/17 13:50:13;;;;;;;0.10;0.10;;;;;;;14.70;40.47;101667.00;5012325;28;20038;-91
2023/10/17 13:52:41;;;;;;;0.20;0.20;;;;;;;14.69;40.56;101671.38;4980855;28;20029;-89